Time;durP1;ratioP1;P1;durP2;ratioP2;P2;SDS_P1;SDS_P2;PMS_P1;PMS_P2;Temp;Humidity;BMP_temperature;BMP_pressure;BME280_temperature;BME280_humidity;BME280_pressure;Samples;Min_cycle;Max_cycle;Signal;HPM_P1;HPM_P2
2021/01/11 00:00:11;;;;;;;18.85;13.20;;;6.30;61.10;;;;;;2099802;28;20461;-59
2021/01/11 00:01:32;;;;;;;19.02;13.20;;;6.30;60.90;;;;;;2105705;28;20077;-59
2021/01/11 00:02:54;;;;;;;18.55;13.20;;;6.30;61.00;;;;;;2103478;28;20028;-59
2021/01/11 00:04:14;;;;;;;21.88;13.82;;;6.30;61.00;;;;;;2105519;28;20074;-59
2021/01/11 00:05:35;;;;;;;19.20;13.90;;;6.30;61.00;;;;;;2103954;28;20059;-59
2021/01/11 00:06:56;;;;;;;18.83;13.13;;;6.20;61.00;;;;;;2106478;28;20039;-59
2021/01/11 00:08:17;;;;;;;20.92;12.73;;;6.20;61.00;;;;;;2102524;28;20048;-59
2021/01/11 00:09:38;;;;;;;19.88;13.45;;;6.20;61.10;;;;;;2104453;28;20032;-59
2021/01/11 00:10:59;;;;;;;19.75;13.68;;;6.20;61.20;;;;;;2107040;28;20115;-59
2021/01/11 00:12:20;;;;;;;17.83;12.82;;;6.20;61.20;;;;;;2104521;28;20024;-59
2021/01/11 00:13:41;;;;;;;20.63;13.73;;;6.10;61.10;;;;;;2105870;28;20021;-59
2021/01/11 00:15:03;;;;;;;20.33;14.10;;;6.10;61.10;;;;;;2105608;28;20036;-59
2021/01/11 00:16:24;;;;;;;21.50;13.75;;;6.10;61.10;;;;;;2105410;28;20395;-59
2021/01/11 00:17:45;;;;;;;18.58;13.95;;;6.10;61.10;;;;;;2102618;28;20025;-59
2021/01/11 00:19:06;;;;;;;17.88;12.80;;;6.10;61.20;;;;;;2105847;28;20024;-59
2021/01/11 00:20:27;;;;;;;19.17;13.88;;;6.10;61.20;;;;;;2102661;28;20054;-59
2021/01/11 00:21:50;;;;;;;20.38;13.80;;;6.10;61.30;;;;;;2102350;28;20142;-59
2021/01/11 00:23:11;;;;;;;22.77;14.65;;;6.00;61.30;;;;;;2107374;28;20031;-59
2021/01/11 00:24:33;;;;;;;20.45;14.45;;;6.00;61.40;;;;;;2102104;28;20590;-59
2021/01/11 00:25:54;;;;;;;20.65;15.20;;;6.00;61.40;;;;;;2104077;28;20028;-59
2021/01/11 00:27:14;;;;;;;18.27;14.00;;;6.00;61.40;;;;;;2106049;28;20024;-59
2021/01/11 00:28:35;;;;;;;20.75;15.02;;;6.00;61.40;;;;;;2104981;28;20106;-58
2021/01/11 00:29:56;;;;;;;23.67;16.02;;;6.00;61.40;;;;;;2104682;28;20376;-59
2021/01/11 00:31:25;;;;;;;18.92;14.65;;;6.00;61.40;;;;;;2104931;28;20046;-59
2021/01/11 00:32:46;;;;;;;19.90;14.57;;;6.00;61.50;;;;;;2101882;28;20370;-59
2021/01/11 00:34:06;;;;;;;21.05;15.10;;;6.00;61.50;;;;;;2106266;28;20051;-59
2021/01/11 00:35:27;;;;;;;21.88;15.38;;;6.00;61.50;;;;;;2105184;28;20040;-59
2021/01/11 00:36:50;;;;;;;23.45;14.80;;;5.90;61.40;;;;;;2103671;28;20035;-59
2021/01/11 00:38:11;;;;;;;22.20;14.52;;;5.90;61.50;;;;;;2105808;28;20024;-59
2021/01/11 00:39:32;;;;;;;22.25;14.93;;;5.90;61.50;;;;;;2106298;28;20425;-59
2021/01/11 00:40:53;;;;;;;23.85;15.27;;;5.90;61.50;;;;;;2106742;28;20118;-59
2021/01/11 00:42:14;;;;;;;21.00;15.00;;;5.90;61.50;;;;;;2105369;28;20030;-60
2021/01/11 00:43:35;;;;;;;19.33;14.10;;;5.90;61.60;;;;;;2105793;28;20118;-60
2021/01/11 00:44:56;;;;;;;20.80;14.38;;;5.90;61.70;;;;;;2106978;28;20039;-60
2021/01/11 00:46:25;;;;;;;21.90;15.35;;;5.90;61.70;;;;;;2105958;28;20111;-60
2021/01/11 00:47:46;;;;;;;22.15;14.70;;;5.90;61.80;;;;;;2103952;28;20023;-60
2021/01/11 00:49:06;;;;;;;21.98;14.23;;;5.90;61.80;;;;;;2106725;28;20032;-60
2021/01/11 00:50:27;;;;;;;21.38;14.80;;;5.90;62.00;;;;;;2096515;28;20720;-60
2021/01/11 00:51:48;;;;;;;21.98;14.55;;;5.90;62.10;;;;;;2104081;28;20137;-59
2021/01/11 00:53:09;;;;;;;21.55;15.45;;;5.90;62.20;;;;;;2106601;28;20020;-60
2021/01/11 00:54:30;;;;;;;20.27;14.43;;;5.90;62.30;;;;;;2105240;28;20031;-60
2021/01/11 00:55:51;;;;;;;20.95;13.82;;;5.90;62.30;;;;;;2105199;28;20020;-60
2021/01/11 00:57:12;;;;;;;18.40;13.88;;;5.90;62.40;;;;;;2104949;28;20077;-60
2021/01/11 00:58:33;;;;;;;17.73;13.70;;;5.90;62.40;;;;;;2104378;28;20020;-60
2021/01/11 00:59:54;;;;;;;23.52;15.60;;;6.00;62.40;;;;;;2106459;28;20031;-59
2021/01/11 01:01:15;;;;;;;21.10;15.05;;;6.00;62.30;;;;;;2104361;28;20081;-60
2021/01/11 01:02:36;;;;;;;20.55;14.85;;;6.00;62.30;;;;;;2106315;28;20037;-58
2021/01/11 01:03:57;;;;;;;19.98;14.32;;;6.00;62.30;;;;;;2107438;28;20030;-59
2021/01/11 01:05:18;;;;;;;20.63;13.95;;;6.00;62.30;;;;;;2103782;28;20662;-59
2021/01/11 01:06:39;;;;;;;20.33;14.32;;;6.00;62.20;;;;;;2105326;28;20024;-59
2021/01/11 01:08:01;;;;;;;19.52;14.07;;;6.00;62.30;;;;;;2099899;28;20540;-58
2021/01/11 01:09:21;;;;;;;19.25;13.98;;;6.00;62.30;;;;;;2106669;28;20553;-59
2021/01/11 01:10:42;;;;;;;20.55;13.95;;;6.10;62.40;;;;;;2105964;28;20044;-59
2021/01/11 01:12:04;;;;;;;19.70;13.55;;;6.00;62.30;;;;;;2101046;28;20065;-58
2021/01/11 01:13:25;;;;;;;19.70;14.57;;;6.00;62.40;;;;;;2107551;28;20012;-58
2021/01/11 01:14:46;;;;;;;22.33;14.45;;;6.10;62.50;;;;;;2105832;28;20012;-58
2021/01/11 01:16:06;;;;;;;20.02;14.82;;;6.10;62.30;;;;;;2110181;28;20450;-59
2021/01/11 01:17:27;;;;;;;21.27;14.85;;;6.10;62.40;;;;;;2105539;28;20087;-59
2021/01/11 01:18:48;;;;;;;20.67;14.13;;;6.10;62.50;;;;;;2106571;28;20040;-59
2021/01/11 01:20:15;;;;;;;21.80;15.40;;;6.10;62.30;;;;;;2107001;28;20059;-58
2021/01/11 01:21:36;;;;;;;23.77;15.43;;;6.10;62.30;;;;;;2096554;28;20016;-60
2021/01/11 01:22:56;;;;;;;20.38;13.98;;;6.10;62.40;;;;;;2103877;28;20415;-60
2021/01/11 01:24:18;;;;;;;19.95;15.00;;;6.10;62.30;;;;;;2106684;28;20028;-59
2021/01/11 01:25:38;;;;;;;20.08;14.88;;;6.10;62.40;;;;;;2109537;28;20493;-60
2021/01/11 01:26:59;;;;;;;22.98;15.80;;;6.10;62.30;;;;;;2105146;28;20024;-59
2021/01/11 01:28:20;;;;;;;23.60;15.82;;;6.10;62.30;;;;;;2105677;28;20028;-59
2021/01/11 01:29:41;;;;;;;21.27;15.52;;;6.10;62.30;;;;;;2108078;28;20085;-59
2021/01/11 01:31:02;;;;;;;20.70;14.63;;;6.10;62.30;;;;;;2105410;28;20029;-58
2021/01/11 01:32:23;;;;;;;23.10;15.30;;;6.10;62.30;;;;;;2105981;28;20468;-60
2021/01/11 01:33:44;;;;;;;23.88;16.27;;;6.20;62.40;;;;;;2106747;28;20111;-58
2021/01/11 01:35:05;;;;;;;22.20;16.27;;;6.10;62.40;;;;;;2098494;28;20043;-58
2021/01/11 01:36:26;;;;;;;21.80;16.15;;;6.10;62.40;;;;;;2102250;28;20043;-58
2021/01/11 01:37:47;;;;;;;25.73;17.60;;;6.20;62.50;;;;;;2103056;28;20029;-59
2021/01/11 01:39:08;;;;;;;23.23;16.75;;;6.20;62.50;;;;;;2102604;28;20027;-59
2021/01/11 01:40:29;;;;;;;23.27;15.93;;;6.20;62.50;;;;;;2104433;28;20056;-58
2021/01/11 01:41:49;;;;;;;23.88;16.55;;;6.10;62.50;;;;;;2103682;28;20028;-58
2021/01/11 01:43:11;;;;;;;23.83;16.50;;;6.10;62.40;;;;;;2105170;28;20032;-58
2021/01/11 01:44:32;;;;;;;25.25;16.65;;;6.10;62.40;;;;;;2108364;28;20028;-58
2021/01/11 01:45:53;;;;;;;25.33;16.90;;;6.20;62.50;;;;;;2105454;28;20113;-58
2021/01/11 01:47:15;;;;;;;23.63;16.17;;;6.20;62.50;;;;;;2106030;28;20035;-59
2021/01/11 01:48:36;;;;;;;25.15;17.00;;;6.20;62.60;;;;;;2105062;28;20024;-59
2021/01/11 01:49:57;;;;;;;21.80;16.83;;;6.20;62.60;;;;;;2106337;28;20016;-58
2021/01/11 01:51:17;;;;;;;24.45;16.73;;;6.20;62.60;;;;;;2106306;28;20043;-58
2021/01/11 01:52:40;;;;;;;25.77;17.33;;;6.20;62.60;;;;;;2105459;28;20028;-58
2021/01/11 01:54:01;;;;;;;24.60;17.88;;;6.20;62.70;;;;;;2106792;28;20048;-58
2021/01/11 01:55:22;;;;;;;24.25;17.27;;;6.20;63.40;;;;;;2105956;28;20427;-59
2021/01/11 01:56:43;;;;;;;24.73;17.50;;;6.20;62.70;;;;;;2103605;28;20016;-59
2021/01/11 01:58:08;;;;;;;22.60;16.50;;;6.20;62.80;;;;;;2107188;28;20024;-59
2021/01/11 01:59:29;;;;;;;26.05;17.60;;;6.20;62.90;;;;;;2104321;28;20051;-59
2021/01/11 02:00:50;;;;;;;26.83;17.80;;;6.20;62.90;;;;;;2106707;28;20046;-59
2021/01/11 02:02:17;;;;;;;24.50;17.70;;;6.20;63.00;;;;;;2108406;28;20027;-59
2021/01/11 02:03:38;;;;;;;28.23;17.85;;;6.20;63.00;;;;;;2105990;28;20480;-59
2021/01/11 02:04:59;;;;;;;24.42;17.10;;;6.20;63.00;;;;;;2106234;28;20115;-59
2021/01/11 02:06:20;;;;;;;25.63;18.27;;;6.30;63.10;;;;;;2106861;28;20390;-59
2021/01/11 02:07:58;;;;;;;25.63;17.60;;;6.30;63.20;;;;;;2105249;28;20139;-58
2021/01/11 02:09:33;;;;;;;25.88;18.70;;;6.30;63.00;;;;;;2107299;28;20035;-59
2021/01/11 02:11:15;;;;;;;24.50;17.17;;;6.30;63.10;;;;;;2108424;28;20028;-59
2021/01/11 02:12:53;;;;;;;26.55;18.27;;;6.30;63.00;;;;;;2105427;28;20089;-59
2021/01/11 02:14:48;;;;;;;25.42;17.75;;;6.30;62.90;;;;;;2103298;28;20396;-59
2021/01/11 02:16:18;;;;;;;24.38;17.40;;;6.30;62.90;;;;;;2106002;28;20020;-59
2021/01/11 02:17:46;;;;;;;25.92;17.88;;;6.40;63.00;;;;;;2106148;28;20020;-59
2021/01/11 02:19:16;;;;;;;25.02;17.67;;;6.40;62.90;;;;;;2105088;28;20028;-59
2021/01/11 02:20:59;;;;;;;28.33;18.73;;;6.40;62.80;;;;;;2105240;28;20081;-59
2021/01/11 02:22:47;;;;;;;25.40;18.50;;;6.30;62.70;;;;;;2102597;28;20024;-59
2021/01/11 02:24:35;;;;;;;25.98;18.33;;;6.30;62.70;;;;;;2105637;28;20032;-59
2021/01/11 02:26:13;;;;;;;25.73;18.50;;;6.40;62.80;;;;;;2103940;28;20020;-60
2021/01/11 02:27:42;;;;;;;27.63;19.33;;;6.40;62.80;;;;;;2107257;28;20339;-59
2021/01/11 02:29:12;;;;;;;26.40;18.30;;;6.40;62.70;;;;;;2105500;28;20036;-58
2021/01/11 02:30:40;;;;;;;23.75;18.15;;;6.30;62.70;;;;;;2106554;28;20627;-59
2021/01/11 02:32:01;;;;;;;26.90;19.08;;;6.30;62.80;;;;;;2105385;28;20035;-59
2021/01/11 02:33:23;;;;;;;27.30;19.42;;;6.40;63.00;;;;;;2103025;28;20056;-59
2021/01/11 02:34:46;;;;;;;27.05;19.38;;;6.30;63.00;;;;;;2107033;28;20055;-60
2021/01/11 02:36:09;;;;;;;27.23;19.27;;;6.30;63.00;;;;;;2105093;28;20031;-59
2021/01/11 02:37:31;;;;;;;28.33;19.42;;;6.30;63.10;;;;;;2106187;28;20024;-59
2021/01/11 02:38:53;;;;;;;25.45;19.33;;;6.30;63.10;;;;;;2098577;28;20458;-60
2021/01/11 02:40:14;;;;;;;27.35;18.98;;;6.30;63.20;;;;;;2107744;28;20097;-59
2021/01/11 02:41:35;;;;;;;29.90;19.30;;;6.30;63.20;;;;;;2104263;28;20031;-59
2021/01/11 02:42:56;;;;;;;25.80;18.15;;;6.40;63.40;;;;;;2103937;28;20028;-59
2021/01/11 02:44:17;;;;;;;29.63;20.23;;;6.40;63.40;;;;;;2105193;28;20016;-60
2021/01/11 02:45:38;;;;;;;28.60;18.38;;;6.40;63.40;;;;;;2108717;28;20055;-60
2021/01/11 02:46:59;;;;;;;25.67;19.40;;;6.40;63.30;;;;;;2106323;28;20504;-60
2021/01/11 02:48:21;;;;;;;25.15;18.35;;;6.40;63.20;;;;;;2103064;28;20028;-60
2021/01/11 02:49:47;;;;;;;24.15;17.67;;;6.40;63.20;;;;;;2106528;28;20055;-59
2021/01/11 02:51:39;;;;;;;26.60;18.92;;;6.40;63.20;;;;;;2098862;28;20023;-60
2021/01/11 02:53:16;;;;;;;27.67;17.20;;;6.40;63.10;;;;;;2104724;28;20070;-60
2021/01/11 02:54:39;;;;;;;26.42;19.02;;;6.40;63.10;;;;;;2105978;28;20638;-60
2021/01/11 02:56:03;;;;;;;23.77;17.55;;;6.50;63.20;;;;;;2096115;28;20044;-60
2021/01/11 02:57:38;;;;;;;27.17;19.02;;;6.40;63.10;;;;;;2105286;28;20109;-59
2021/01/11 02:59:17;;;;;;;26.40;18.13;;;6.50;63.10;;;;;;2105621;28;20369;-60
2021/01/11 03:00:40;;;;;;;24.48;17.50;;;6.40;62.90;;;;;;2101615;28;20032;-59
2021/01/11 03:02:09;;;;;;;27.27;19.38;;;6.40;63.00;;;;;;2102915;28;20040;-59
2021/01/11 03:03:31;;;;;;;26.65;18.90;;;6.50;62.90;;;;;;2107702;27;20095;-59
2021/01/11 03:04:53;;;;;;;27.45;19.40;;;6.40;62.90;;;;;;2103568;28;20509;-60
2021/01/11 03:06:14;;;;;;;29.05;19.15;;;6.40;62.90;;;;;;2105537;28;20028;-59
2021/01/11 03:07:35;;;;;;;25.80;19.42;;;6.50;63.00;;;;;;2105136;28;20071;-59
2021/01/11 03:09:03;;;;;;;26.40;18.75;;;6.50;63.00;;;;;;2105049;28;20373;-59
2021/01/11 03:10:24;;;;;;;28.10;18.88;;;6.40;62.90;;;;;;2106733;28;20031;-60
2021/01/11 03:11:45;;;;;;;27.05;18.98;;;6.40;63.00;;;;;;2103616;28;20389;-59
2021/01/11 03:13:06;;;;;;;26.60;18.50;;;6.40;62.90;;;;;;2104624;28;20020;-60
2021/01/11 03:14:27;;;;;;;26.45;18.92;;;6.40;63.00;;;;;;2106048;28;20624;-59
2021/01/11 03:15:48;;;;;;;25.30;18.17;;;6.40;63.00;;;;;;2102717;28;20032;-59
2021/01/11 03:17:09;;;;;;;26.77;17.95;;;6.40;63.00;;;;;;2107068;28;20415;-60
2021/01/11 03:18:29;;;;;;;30.52;19.15;;;6.40;63.10;;;;;;2103589;28;20457;-59
2021/01/11 03:19:50;;;;;;;28.52;20.15;;;6.40;63.10;;;;;;2107036;28;20060;-60
2021/01/11 03:21:11;;;;;;;25.75;19.48;;;6.40;63.00;;;;;;2105010;28;20029;-59
2021/01/11 03:22:32;;;;;;;28.05;19.80;;;6.40;63.00;;;;;;2099384;28;20032;-60
2021/01/11 03:23:53;;;;;;;25.88;18.85;;;6.40;63.00;;;;;;2101716;28;20028;-60
2021/01/11 03:25:14;;;;;;;26.33;19.40;;;6.40;62.90;;;;;;2102276;28;20036;-60
2021/01/11 03:26:35;;;;;;;25.83;19.85;;;6.40;62.90;;;;;;2104982;28;20712;-60
2021/01/11 03:27:56;;;;;;;30.08;20.40;;;6.40;62.90;;;;;;2104489;28;20028;-60
2021/01/11 03:29:19;;;;;;;26.95;19.70;;;6.40;62.90;;;;;;2104297;28;20035;-60
2021/01/11 03:30:40;;;;;;;28.80;20.08;;;6.40;62.80;;;;;;2106519;28;20020;-60
2021/01/11 03:32:01;;;;;;;30.70;20.02;;;6.40;62.80;;;;;;2108192;28;20039;-60
2021/01/11 03:33:22;;;;;;;29.65;20.48;;;6.40;62.80;;;;;;2105440;28;20020;-60
2021/01/11 03:34:42;;;;;;;30.25;20.38;;;6.40;63.50;;;;;;2105834;28;20024;-59
2021/01/11 03:36:04;;;;;;;27.55;20.17;;;6.40;62.70;;;;;;2099423;28;20028;-60
2021/01/11 03:37:25;;;;;;;30.08;19.27;;;6.40;62.70;;;;;;2102455;28;20088;-60
2021/01/11 03:38:46;;;;;;;31.13;20.50;;;6.30;62.70;;;;;;2093690;28;20029;-60
2021/01/11 03:40:08;;;;;;;27.00;19.50;;;6.30;62.80;;;;;;2105425;28;20063;-59
2021/01/11 03:41:28;;;;;;;30.05;20.45;;;6.40;62.80;;;;;;2104395;28;20028;-59
2021/01/11 03:42:49;;;;;;;27.60;20.20;;;6.40;62.70;;;;;;2106983;28;20028;-59
2021/01/11 03:44:10;;;;;;;28.88;19.48;;;6.30;62.60;;;;;;2106483;28;20035;-60
2021/01/11 03:45:31;;;;;;;28.63;19.20;;;6.30;62.60;;;;;;2104817;28;20021;-59
2021/01/11 03:46:52;;;;;;;29.80;19.95;;;6.30;62.60;;;;;;2106492;28;20111;-59
2021/01/11 03:48:13;;;;;;;28.08;19.55;;;6.30;63.40;;;;;;2105741;28;20093;-59
2021/01/11 03:49:34;;;;;;;28.00;19.52;;;6.30;62.70;;;;;;2105175;28;20027;-59
2021/01/11 03:50:54;;;;;;;26.05;18.65;;;6.30;62.80;;;;;;2105170;28;20036;-59
2021/01/11 03:52:15;;;;;;;28.52;19.55;;;6.30;62.80;;;;;;2102311;28;20371;-59
2021/01/11 03:53:37;;;;;;;25.45;17.92;;;6.30;62.80;;;;;;2103980;28;20083;-59
2021/01/11 03:54:58;;;;;;;29.38;19.98;;;6.30;62.70;;;;;;2105528;28;20047;-59
2021/01/11 03:56:21;;;;;;;27.85;19.48;;;6.30;62.70;;;;;;2103047;28;20042;-60
2021/01/11 03:57:41;;;;;;;24.70;18.02;;;6.30;62.80;;;;;;2104431;28;20366;-60
2021/01/11 03:59:02;;;;;;;30.75;20.02;;;6.30;62.80;;;;;;2096216;28;20024;-59
2021/01/11 04:00:23;;;;;;;26.45;18.98;;;6.30;62.90;;;;;;2100587;28;20028;-59
2021/01/11 04:01:44;;;;;;;29.15;19.60;;;6.30;62.90;;;;;;2103930;28;20020;-60
2021/01/11 04:03:05;;;;;;;32.15;20.23;;;6.30;62.90;;;;;;2100890;28;20020;-59
2021/01/11 04:04:26;;;;;;;27.33;18.95;;;6.20;62.90;;;;;;2104546;28;20024;-59
2021/01/11 04:05:47;;;;;;;28.60;21.02;;;6.20;62.90;;;;;;2103862;28;20683;-60
2021/01/11 04:07:08;;;;;;;30.27;20.98;;;6.30;63.00;;;;;;2101137;28;20039;-59
2021/01/11 04:08:29;;;;;;;26.50;18.92;;;6.30;63.00;;;;;;2104236;28;20602;-60
2021/01/11 04:09:50;;;;;;;29.42;20.25;;;6.20;62.90;;;;;;2108340;28;20531;-59
2021/01/11 04:11:12;;;;;;;28.40;19.80;;;6.20;62.90;;;;;;2107212;28;20059;-59
2021/01/11 04:12:33;;;;;;;29.17;20.50;;;6.30;62.90;;;;;;2107284;28;20024;-59
2021/01/11 04:13:54;;;;;;;31.85;20.38;;;6.20;62.80;;;;;;2107054;28;20460;-59
2021/01/11 04:15:15;;;;;;;27.83;19.60;;;6.20;62.90;;;;;;2110281;28;20119;-59
2021/01/11 04:16:36;;;;;;;31.17;21.25;;;6.20;62.90;;;;;;2105802;28;20651;-60
2021/01/11 04:17:57;;;;;;;32.35;21.55;;;6.20;63.00;;;;;;2107790;28;20024;-59
2021/01/11 04:19:18;;;;;;;29.95;21.52;;;6.30;63.10;;;;;;2104509;28;20024;-59
2021/01/11 04:20:40;;;;;;;30.98;22.05;;;6.30;63.00;;;;;;2108901;28;20032;-60
2021/01/11 04:22:01;;;;;;;33.10;21.38;;;6.20;62.90;;;;;;2107345;28;20024;-59
2021/01/11 04:23:22;;;;;;;33.90;22.27;;;6.30;63.00;;;;;;2095233;28;20155;-59
2021/01/11 04:24:43;;;;;;;34.10;22.70;;;6.30;63.00;;;;;;2104630;28;20032;-59
2021/01/11 04:26:03;;;;;;;33.17;22.08;;;6.20;62.90;;;;;;2103966;28;20489;-60
2021/01/11 04:27:24;;;;;;;31.23;21.60;;;6.30;62.80;;;;;;2106254;28;20474;-59
2021/01/11 04:28:45;;;;;;;31.17;21.85;;;6.30;62.80;;;;;;2102650;28;20683;-59
2021/01/11 04:30:07;;;;;;;33.53;23.02;;;6.30;62.90;;;;;;2107363;28;20684;-60
2021/01/11 04:31:28;;;;;;;32.17;21.80;;;6.20;62.90;;;;;;2107414;28;20062;-59
2021/01/11 04:32:49;;;;;;;32.90;22.80;;;6.20;63.00;;;;;;2109474;28;20528;-59
2021/01/11 04:34:10;;;;;;;37.80;24.45;;;6.30;63.10;;;;;;2106814;28;20506;-59
2021/01/11 04:35:31;;;;;;;35.30;23.67;;;6.20;63.00;;;;;;2105680;28;20051;-59
2021/01/11 04:36:51;;;;;;;37.42;24.65;;;6.20;63.80;;;;;;2104697;28;20016;-59
2021/01/11 04:38:12;;;;;;;35.55;24.58;;;6.20;63.10;;;;;;2106990;28;20117;-59
2021/01/11 04:39:34;;;;;;;35.95;23.10;;;6.20;63.10;;;;;;2106059;28;20050;-59
2021/01/11 04:41:03;;;;;;;35.53;23.83;;;6.20;63.10;;;;;;2106308;28;20043;-60
2021/01/11 04:42:33;;;;;;;33.20;22.58;;;6.30;63.20;;;;;;2106877;28;20025;-60
2021/01/11 04:43:54;;;;;;;37.58;24.23;;;6.20;63.10;;;;;;2105076;28;20502;-59
2021/01/11 04:45:16;;;;;;;35.10;22.73;;;6.20;63.10;;;;;;2104267;28;20040;-59
2021/01/11 04:46:37;;;;;;;31.17;21.75;;;6.20;63.20;;;;;;2106529;28;20027;-58
2021/01/11 04:48:00;;;;;;;30.77;20.33;;;6.30;63.30;;;;;;2106598;28;20493;-59
2021/01/11 04:49:21;;;;;;;33.60;21.25;;;6.20;63.20;;;;;;2105294;28;20055;-60
2021/01/11 04:50:43;;;;;;;37.03;23.70;;;6.20;63.30;;;;;;2103950;28;20032;-60
2021/01/11 04:52:07;;;;;;;34.28;24.40;;;6.20;63.30;;;;;;2106190;28;20083;-59
2021/01/11 04:53:29;;;;;;;37.45;25.23;;;6.20;63.30;;;;;;2105769;28;20489;-60
2021/01/11 04:54:56;;;;;;;38.78;24.42;;;6.20;63.40;;;;;;2106286;28;20051;-60
2021/01/11 04:56:19;;;;;;;35.20;23.80;;;6.20;63.50;;;;;;2106950;28;20095;-60
2021/01/11 04:57:55;;;;;;;34.97;24.00;;;6.20;63.40;;;;;;2108183;28;20042;-59
2021/01/11 04:59:19;;;;;;;35.15;23.60;;;6.20;63.50;;;;;;2103688;28;20612;-60
2021/01/11 05:00:42;;;;;;;33.85;23.45;;;6.20;63.50;;;;;;2107514;28;20047;-59
2021/01/11 05:02:07;;;;;;;39.63;24.77;;;6.20;63.50;;;;;;2100683;28;20020;-59
2021/01/11 05:03:29;;;;;;;36.05;23.23;;;6.20;63.50;;;;;;2106758;28;20039;-60
2021/01/11 05:04:51;;;;;;;38.03;24.98;;;6.20;63.50;;;;;;2106215;28;20036;-59
2021/01/11 05:06:12;;;;;;;38.63;23.58;;;6.20;63.50;;;;;;2106841;28;20028;-59
2021/01/11 05:07:33;;;;;;;37.22;25.02;;;6.20;63.50;;;;;;2106827;28;20036;-60
2021/01/11 05:09:06;;;;;;;41.35;26.75;;;6.20;63.60;;;;;;2099354;28;20036;-60
2021/01/11 05:10:32;;;;;;;40.65;25.20;;;6.20;63.60;;;;;;2104383;28;20040;-60
2021/01/11 05:11:54;;;;;;;43.35;26.95;;;6.20;63.70;;;;;;2105842;28;20615;-59
2021/01/11 05:13:14;;;;;;;37.45;25.55;;;6.20;63.70;;;;;;2106831;28;20094;-59
2021/01/11 05:14:35;;;;;;;40.08;24.83;;;6.20;63.80;;;;;;2106656;28;20020;-60
2021/01/11 05:16:09;;;;;;;39.92;26.20;;;6.20;63.80;;;;;;2105234;28;20104;-58
2021/01/11 05:17:30;;;;;;;37.25;25.05;;;6.20;63.80;;;;;;2099083;28;20047;-59
2021/01/11 05:18:56;;;;;;;37.60;24.83;;;6.20;63.90;;;;;;2106445;28;20084;-60
2021/01/11 05:20:34;;;;;;;39.15;25.02;;;6.20;63.90;;;;;;2104136;28;20030;-59
2021/01/11 05:21:54;;;;;;;32.75;22.05;;;6.20;63.90;;;;;;2106720;28;20111;-59
2021/01/11 05:23:16;;;;;;;36.65;22.70;;;6.20;63.90;;;;;;2103462;28;20060;-59
2021/01/11 05:24:40;;;;;;;33.42;22.83;;;6.20;63.90;;;;;;2106145;28;20063;-59
2021/01/11 05:26:12;;;;;;;26.65;19.13;;;6.20;63.80;;;;;;2100716;28;20496;-59
2021/01/11 05:27:33;;;;;;;31.20;20.40;;;6.20;63.80;;;;;;2105509;28;20020;-59
2021/01/11 05:28:54;;;;;;;30.40;21.27;;;6.20;63.80;;;;;;2105569;28;20891;-59
2021/01/11 05:30:24;;;;;;;31.05;21.55;;;6.20;63.80;;;;;;2103994;28;20020;-59
2021/01/11 05:31:59;;;;;;;30.50;20.83;;;6.20;63.80;;;;;;2104490;28;20024;-59
2021/01/11 05:33:26;;;;;;;25.58;19.30;;;6.20;63.80;;;;;;2103989;28;20093;-59
2021/01/11 05:34:50;;;;;;;30.55;20.27;;;6.20;63.80;;;;;;2103264;28;20132;-59
2021/01/11 05:36:13;;;;;;;34.03;21.02;;;6.20;63.80;;;;;;2104797;28;20069;-60
2021/01/11 05:37:38;;;;;;;32.83;21.58;;;6.20;63.80;;;;;;2105880;28;20025;-59
2021/01/11 05:39:07;;;;;;;29.50;20.85;;;6.20;63.80;;;;;;2106593;28;20063;-59
2021/01/11 05:40:29;;;;;;;29.40;21.05;;;6.20;63.80;;;;;;2104874;28;20024;-59
2021/01/11 05:41:50;;;;;;;28.58;21.10;;;6.20;64.50;;;;;;2106425;28;20031;-59
2021/01/11 05:43:19;;;;;;;28.77;21.55;;;6.20;63.80;;;;;;2106072;28;20103;-59
2021/01/11 05:44:40;;;;;;;29.73;20.50;;;6.20;63.80;;;;;;2104129;28;20021;-59
2021/01/11 05:46:21;;;;;;;34.55;22.65;;;6.30;64.00;;;;;;2100605;28;20106;-60
2021/01/11 05:48:00;;;;;;;29.90;20.50;;;6.20;63.90;;;;;;2106650;28;20032;-59
2021/01/11 05:49:21;;;;;;;25.10;18.00;;;6.30;64.00;;;;;;2104184;28;20052;-59
2021/01/11 05:50:46;;;;;;;27.67;21.10;;;6.20;63.90;;;;;;2106707;28;20264;-59
2021/01/11 05:52:13;;;;;;;32.28;21.38;;;6.20;63.80;;;;;;2101840;28;20032;-59
2021/01/11 05:53:40;;;;;;;30.27;20.77;;;6.30;63.70;;;;;;2104973;28;20075;-59
2021/01/11 05:55:18;;;;;;;30.27;21.17;;;6.30;63.80;;;;;;2106939;28;20368;-59
2021/01/11 05:56:57;;;;;;;30.13;20.55;;;6.30;63.80;;;;;;2109298;28;20059;-59
2021/01/11 05:58:22;;;;;;;29.33;20.48;;;6.30;63.70;;;;;;2103670;28;20122;-59
2021/01/11 05:59:43;;;;;;;27.30;19.92;;;6.30;63.70;;;;;;2098503;28;20016;-59
2021/01/11 06:01:04;;;;;;;33.72;22.95;;;6.30;63.70;;;;;;2099171;28;20024;-59
2021/01/11 06:02:25;;;;;;;31.38;22.48;;;6.30;63.70;;;;;;2105939;28;20035;-59
2021/01/11 06:03:46;;;;;;;36.45;22.90;;;6.30;63.70;;;;;;2104514;28;20090;-59
2021/01/11 06:05:08;;;;;;;33.42;22.08;;;6.30;63.70;;;;;;2102440;28;20024;-59
2021/01/11 06:06:29;;;;;;;29.45;20.77;;;6.30;63.70;;;;;;2108406;28;20024;-59
2021/01/11 06:07:50;;;;;;;34.03;22.20;;;6.30;63.90;;;;;;2104163;28;20081;-60
2021/01/11 06:09:12;;;;;;;29.75;20.35;;;6.30;63.90;;;;;;2107148;28;20032;-59
2021/01/11 06:10:34;;;;;;;32.65;20.30;;;6.30;63.90;;;;;;2109048;28;20065;-60
2021/01/11 06:11:55;;;;;;;28.67;21.23;;;6.30;63.90;;;;;;2106087;28;20043;-60
2021/01/11 06:13:18;;;;;;;32.60;22.33;;;6.30;63.80;;;;;;2105875;28;20020;-59
2021/01/11 06:14:39;;;;;;;28.40;20.83;;;6.30;63.80;;;;;;2098385;28;20032;-59
2021/01/11 06:16:02;;;;;;;29.75;20.92;;;6.30;63.90;;;;;;2100908;28;20043;-59
2021/01/11 06:17:23;;;;;;;29.08;21.13;;;6.30;63.90;;;;;;2103825;28;20012;-60
2021/01/11 06:18:49;;;;;;;32.38;21.30;;;6.30;63.90;;;;;;2108784;28;20021;-59
2021/01/11 06:20:15;;;;;;;29.70;20.88;;;6.30;63.90;;;;;;2106096;28;20362;-59
2021/01/11 06:21:35;;;;;;;29.30;18.90;;;6.30;63.90;;;;;;2104030;28;20024;-59
2021/01/11 06:22:56;;;;;;;30.20;20.08;;;6.30;63.90;;;;;;2104012;28;20016;-59
2021/01/11 06:24:18;;;;;;;30.90;20.20;;;6.30;63.80;;;;;;2105351;28;20055;-59
2021/01/11 06:25:40;;;;;;;28.05;19.48;;;6.30;63.80;;;;;;2108491;28;20435;-59
2021/01/11 06:27:16;;;;;;;30.02;21.20;;;6.30;63.70;;;;;;2107359;28;20051;-59
2021/01/11 06:28:36;;;;;;;27.75;19.20;;;6.30;63.70;;;;;;2105722;28;20031;-59
2021/01/11 06:29:57;;;;;;;30.88;20.33;;;6.30;63.70;;;;;;2104409;28;20024;-60
2021/01/11 06:31:25;;;;;;;28.05;19.30;;;6.30;63.80;;;;;;2106748;28;20064;-59
2021/01/11 06:32:46;;;;;;;28.80;20.13;;;6.30;63.80;;;;;;2104027;28;20077;-59
2021/01/11 06:34:07;;;;;;;26.92;18.95;;;6.30;63.90;;;;;;2105573;28;20077;-59
2021/01/11 06:35:31;;;;;;;25.25;17.77;;;6.30;63.90;;;;;;2105998;28;20035;-59
2021/01/11 06:36:52;;;;;;;28.85;19.27;;;6.30;63.90;;;;;;2104090;28;20020;-60
2021/01/11 06:38:25;;;;;;;25.35;18.17;;;6.30;63.90;;;;;;2107881;28;20024;-59
2021/01/11 06:39:47;;;;;;;25.70;18.33;;;6.30;63.80;;;;;;2106190;28;20035;-59
2021/01/11 06:41:07;;;;;;;27.63;18.92;;;6.30;63.80;;;;;;2108055;28;20468;-59
2021/01/11 06:42:29;;;;;;;24.38;17.75;;;6.40;63.90;;;;;;2106417;28;20055;-59
2021/01/11 06:43:52;;;;;;;25.02;18.33;;;6.30;63.70;;;;;;2104433;28;20028;-60
2021/01/11 06:45:33;;;;;;;27.67;18.58;;;6.30;63.70;;;;;;2102787;28;20074;-59
2021/01/11 06:46:55;;;;;;;26.45;17.35;;;6.30;63.70;;;;;;2105403;28;20371;-59
2021/01/11 06:48:21;;;;;;;31.38;19.75;;;6.40;63.80;;;;;;2106414;28;20032;-60
2021/01/11 06:49:46;;;;;;;29.60;18.55;;;6.30;63.60;;;;;;2106434;28;20111;-59
2021/01/11 06:51:09;;;;;;;28.80;18.05;;;6.40;63.70;;;;;;2098548;28;20036;-59
2021/01/11 06:52:35;;;;;;;26.08;17.73;;;6.40;63.70;;;;;;2094196;28;20087;-59
2021/01/11 06:54:09;;;;;;;27.02;18.73;;;6.40;63.60;;;;;;2095584;28;20402;-60
2021/01/11 06:55:31;;;;;;;20.35;15.48;;;6.30;63.50;;;;;;2102853;28;20036;-59
2021/01/11 06:56:52;;;;;;;22.98;17.05;;;6.40;63.60;;;;;;2105698;28;20028;-59
2021/01/11 06:58:22;;;;;;;22.95;16.80;;;6.40;63.70;;;;;;2101143;28;20335;-59
2021/01/11 06:59:46;;;;;;;23.88;17.38;;;6.40;63.50;;;;;;2107416;28;20020;-59
2021/01/11 07:01:11;;;;;;;24.33;17.05;;;6.40;63.60;;;;;;2105476;28;20020;-59
2021/01/11 07:02:41;;;;;;;26.95;17.92;;;6.40;63.50;;;;;;2106676;28;20040;-60
2021/01/11 07:04:02;;;;;;;27.70;17.98;;;6.40;63.40;;;;;;2106109;28;20024;-60
2021/01/11 07:05:38;;;;;;;24.02;17.63;;;6.30;63.40;;;;;;2108916;28;20097;-60
2021/01/11 07:07:02;;;;;;;24.42;16.75;;;6.30;63.20;;;;;;2105067;28;20472;-60
2021/01/11 07:08:23;;;;;;;26.45;17.02;;;6.30;63.30;;;;;;2103352;28;20043;-60